createdAt,value
2019-04-07T00:01:21.540Z,67.20
2019-04-07T00:03:55.279Z,59.00
2019-04-07T00:06:29.465Z,64.25
2019-04-07T00:09:05.197Z,67.25
2019-04-07T00:11:38.913Z,61.50
2019-04-07T00:14:12.786Z,65.80
2019-04-07T00:16:46.586Z,67.40
2019-04-07T00:19:20.839Z,70.50
2019-04-07T00:21:55.735Z,67.75
2019-04-07T00:24:29.640Z,70.60
2019-04-07T00:27:03.638Z,66.00
2019-04-07T00:29:37.958Z,68.75
2019-04-07T00:32:12.772Z,69.67
2019-04-07T00:34:46.833Z,70.00
2019-04-07T00:37:20.741Z,73.00
2019-04-07T00:39:54.526Z,65.40
2019-04-07T00:42:28.241Z,70.00
2019-04-07T00:45:02.175Z,66.75
2019-04-07T00:47:36.116Z,69.00
2019-04-07T00:50:09.825Z,61.50
2019-04-07T00:52:43.664Z,66.80
2019-04-07T00:55:17.652Z,69.60
2019-04-07T00:57:51.741Z,67.50
2019-04-07T01:00:25.599Z,69.25
2019-04-07T01:02:59.439Z,67.75
2019-04-07T01:05:36.187Z,65.00
2019-04-07T01:08:08.626Z,66.50
2019-04-07T01:10:42.719Z,70.25
2019-04-07T01:13:16.627Z,67.80
2019-04-07T01:15:50.609Z,69.00
2019-04-07T01:18:26.640Z,63.50
2019-04-07T01:21:00.575Z,67.00
2019-04-07T01:23:34.770Z,67.25
2019-04-07T01:26:08.646Z,63.50
2019-04-07T01:28:42.905Z,63.50
2019-04-07T01:31:16.755Z,66.60
2019-04-07T01:33:50.511Z,66.75
2019-04-07T01:36:24.963Z,66.50
2019-04-07T01:38:58.812Z,68.60
2019-04-07T01:41:32.934Z,70.00
2019-04-07T01:44:06.807Z,63.50
2019-04-07T01:46:41.517Z,69.50
2019-04-07T01:49:15.831Z,67.00
2019-04-07T01:51:49.680Z,58.00
2019-04-07T01:54:24.157Z,66.50
2019-04-07T01:56:58.111Z,64.00
2019-04-07T01:59:31.874Z,63.75
2019-04-07T02:02:05.594Z,65.25
2019-04-07T02:04:39.842Z,63.50
2019-04-07T02:07:13.610Z,68.75
2019-04-07T02:09:47.889Z,71.00
2019-04-07T02:12:22.308Z,66.50
2019-04-07T02:14:56.313Z,65.40
2019-04-07T02:17:30.212Z,68.60
2019-04-07T02:20:07.889Z,66.00
2019-04-07T02:22:42.003Z,64.50
2019-04-07T02:25:16.135Z,69.75
2019-04-07T02:27:49.907Z,67.00
2019-04-07T02:30:23.813Z,63.75
2019-04-07T02:32:58.266Z,70.00
2019-04-07T02:35:32.165Z,72.25
2019-04-07T02:38:06.263Z,71.00
2019-04-07T02:40:40.711Z,66.40
2019-04-07T02:43:14.499Z,66.25
2019-04-07T02:45:48.206Z,65.60
2019-04-07T02:48:22.106Z,68.75
2019-04-07T02:50:57.043Z,68.75
2019-04-07T02:53:30.973Z,67.00
2019-04-07T02:56:05.380Z,66.25
2019-04-07T02:58:40.234Z,66.40
2019-04-07T03:01:14.193Z,73.20
2019-04-07T03:03:48.271Z,67.25
2019-04-07T03:06:37.667Z,69.50
2019-04-07T03:08:57.450Z,67.60
2019-04-07T03:11:31.452Z,70.00
2019-04-07T03:14:05.670Z,69.25
2019-04-07T03:16:39.665Z,70.00
2019-04-07T03:19:15.134Z,70.25
2019-04-07T03:21:48.964Z,71.25
2019-04-07T03:24:22.680Z,67.25
2019-04-07T03:26:56.592Z,63.20
2019-04-07T03:29:31.179Z,68.50
2019-04-07T03:32:06.320Z,63.00
2019-04-07T03:34:41.172Z,72.00
2019-04-07T03:37:32.239Z,63.25
2019-04-07T03:39:51.276Z,75.60
2019-04-07T03:42:25.032Z,64.00
2019-04-07T03:44:59.112Z,67.75
2019-04-07T03:47:32.834Z,75.75
2019-04-07T03:50:07.156Z,66.60
2019-04-07T03:52:41.050Z,71.25
2019-04-07T03:55:15.268Z,69.25
2019-04-07T03:57:49.405Z,66.75
2019-04-07T04:00:56.231Z,66.50
2019-04-07T04:03:30.248Z,70.25
2019-04-07T04:06:04.725Z,70.50
2019-04-07T04:08:38.542Z,69.20
2019-04-07T04:11:12.792Z,66.20
2019-04-07T04:13:47.732Z,68.40
2019-04-07T04:16:22.073Z,71.75
2019-04-07T04:18:56.587Z,73.00
2019-04-07T04:21:30.835Z,67.75
2019-04-07T04:24:04.728Z,66.80
2019-04-07T04:26:38.442Z,62.50
2019-04-07T04:29:12.830Z,69.40
2019-04-07T04:31:47.378Z,76.00
2019-04-07T04:34:21.245Z,71.50
2019-04-07T04:36:54.982Z,67.75
2019-04-07T04:39:29.441Z,68.75
2019-04-07T04:42:04.047Z,71.75
2019-04-07T04:44:37.997Z,71.00
2019-04-07T04:47:12.876Z,66.60
2019-04-07T04:49:46.590Z,67.75
2019-04-07T04:52:20.725Z,71.50
2019-04-07T04:54:54.954Z,75.75
2019-04-07T04:57:28.701Z,71.40
2019-04-07T05:00:03.860Z,72.50
2019-04-07T05:02:38.281Z,68.00
2019-04-07T05:05:12.475Z,70.00
2019-04-07T05:07:55.445Z,72.75
2019-04-07T05:10:21.681Z,72.00
2019-04-07T05:12:56.080Z,62.75
2019-04-07T05:15:29.897Z,71.20
2019-04-07T05:18:04.274Z,64.25
2019-04-07T05:20:38.713Z,72.75
2019-04-07T05:23:12.988Z,72.00
2019-04-07T05:25:46.780Z,68.80
2019-04-07T05:28:21.214Z,74.50
2019-04-07T05:30:55.011Z,74.75
2019-04-07T05:33:29.305Z,67.00
2019-04-07T05:36:03.728Z,73.50
2019-04-07T05:38:37.743Z,75.00
2019-04-07T05:41:12.043Z,68.80
2019-04-07T05:43:45.887Z,71.75
2019-04-07T05:46:20.176Z,73.50
2019-04-07T05:48:54.034Z,71.25
2019-04-07T05:51:29.999Z,70.75
2019-04-07T05:54:03.589Z,72.00
2019-04-07T05:56:37.988Z,69.00
2019-04-07T05:59:13.166Z,66.80
2019-04-07T06:01:50.559Z,70.00
2019-04-07T06:04:23.166Z,70.75
2019-04-07T06:06:56.885Z,77.25
2019-04-07T06:09:33.535Z,72.00
2019-04-07T06:12:09.585Z,74.60
2019-04-07T06:14:41.736Z,68.50
2019-04-07T06:17:15.491Z,67.00
2019-04-07T06:19:51.355Z,73.80
2019-04-07T06:22:24.771Z,74.50
2019-04-07T06:25:00.797Z,69.00
2019-04-07T06:27:34.525Z,70.00
2019-04-07T06:30:08.526Z,73.50
2019-04-07T06:32:43.776Z,72.75
2019-04-07T06:35:18.250Z,62.75
2019-04-07T06:37:52.151Z,74.80
2019-04-07T06:40:25.839Z,72.75
2019-04-07T06:43:03.542Z,71.25
2019-04-07T06:45:35.107Z,76.00
2019-04-07T06:48:09.311Z,68.25
2019-04-07T06:50:49.325Z,70.75
2019-04-07T06:53:20.721Z,71.25
2019-04-07T06:55:58.434Z,67.80
2019-04-07T06:58:29.923Z,70.75
2019-04-07T07:01:03.713Z,71.75
2019-04-07T07:03:38.707Z,68.25
2019-04-07T07:06:15.140Z,68.00
2019-04-07T07:08:48.606Z,66.60
2019-04-07T07:11:28.901Z,67.75
2019-04-07T07:13:59.014Z,69.50
2019-04-07T07:16:32.745Z,64.25
2019-04-07T07:19:06.519Z,68.25
2019-04-07T07:21:41.347Z,66.50
2019-04-07T07:24:22.699Z,67.60
2019-04-07T07:26:53.890Z,68.25
2019-04-07T07:29:27.711Z,62.50
2019-04-07T07:32:03.777Z,71.00
2019-04-07T07:34:39.854Z,64.50
2019-04-07T07:37:13.314Z,66.20
2019-04-07T07:39:47.182Z,66.60
2019-04-07T07:42:23.109Z,62.00
2019-04-07T07:44:57.054Z,66.75
2019-04-07T07:47:31.345Z,62.50
2019-04-07T07:50:07.607Z,64.75
2019-04-07T07:52:41.819Z,68.00
2019-04-07T07:55:15.603Z,66.25
2019-04-07T07:57:54.338Z,66.75
2019-04-07T08:00:25.666Z,67.00
2019-04-07T08:03:01.176Z,70.75
2019-04-07T08:05:34.905Z,66.00
2019-04-07T08:08:09.279Z,59.50
2019-04-07T08:10:43.029Z,60.50
2019-04-07T08:13:16.874Z,64.00
2019-04-07T08:15:51.341Z,65.50
2019-04-07T08:18:25.148Z,63.50
2019-04-07T08:20:58.971Z,64.75
2019-04-07T08:23:32.681Z,63.50
2019-04-07T08:26:06.485Z,61.20
2019-04-07T08:28:40.314Z,63.75
2019-04-07T08:31:17.719Z,64.00
2019-04-07T08:33:51.458Z,57.20
2019-04-07T08:36:25.948Z,60.50
2019-04-07T08:38:59.750Z,62.00
2019-04-07T08:41:33.572Z,64.80
2019-04-07T08:44:07.282Z,61.25
2019-04-07T08:46:43.119Z,65.00
2019-04-07T08:49:16.993Z,64.80
2019-04-07T08:51:50.968Z,61.50
2019-04-07T08:54:24.713Z,61.75
2019-04-07T08:56:59.132Z,63.60
2019-04-07T08:59:32.912Z,60.75
2019-04-07T09:02:07.511Z,60.80
2019-04-07T09:04:41.418Z,65.75
2019-04-07T09:07:15.485Z,61.25
2019-04-07T09:09:49.974Z,66.75
2019-04-07T09:12:27.476Z,65.50
2019-04-07T09:15:02.722Z,64.00
2019-04-07T09:17:41.009Z,63.00
2019-04-07T09:20:10.806Z,60.75
2019-04-07T09:22:44.692Z,59.80
2019-04-07T09:25:19.276Z,63.25
2019-04-07T09:27:53.809Z,62.75
2019-04-07T09:30:27.743Z,56.40
2019-04-07T09:33:01.478Z,62.25
2019-04-07T09:35:36.129Z,58.50
2019-04-07T09:38:10.019Z,57.75
2019-04-07T09:40:46.238Z,60.40
2019-04-07T09:43:19.872Z,62.00
2019-04-07T09:45:53.986Z,57.60
2019-04-07T09:48:27.865Z,57.60
2019-04-07T09:51:04.987Z,57.25
2019-04-07T09:53:37.194Z,59.00
2019-04-07T09:56:11.998Z,53.00
2019-04-07T09:58:45.919Z,59.25
2019-04-07T10:01:20.215Z,54.80
2019-04-07T10:03:54.883Z,52.80
2019-04-07T10:06:28.616Z,49.25
2019-04-07T10:09:02.347Z,53.25
2019-04-07T10:11:36.223Z,57.00
2019-04-07T10:14:10.088Z,57.00
2019-04-07T10:16:43.850Z,50.80
2019-04-07T10:19:18.014Z,54.25
2019-04-07T10:21:51.962Z,53.40
2019-04-07T10:24:25.909Z,53.50
2019-04-07T10:27:00.049Z,56.25
2019-04-07T10:29:34.122Z,55.00
2019-04-07T10:32:08.850Z,53.40
2019-04-07T10:34:42.870Z,55.00
2019-04-07T10:37:17.338Z,49.75
2019-04-07T10:39:51.084Z,57.00
2019-04-07T10:42:24.810Z,48.00
2019-04-07T10:44:58.562Z,54.75
2019-04-07T10:47:32.286Z,55.00
2019-04-07T10:50:08.448Z,50.80
2019-04-07T10:52:41.436Z,59.00
2019-04-07T10:55:15.266Z,54.00
2019-04-07T10:57:49.397Z,54.00
2019-04-07T11:00:24.058Z,50.25
2019-04-07T11:02:57.889Z,48.25
2019-04-07T11:05:31.608Z,48.00
2019-04-07T11:08:06.086Z,44.80
2019-04-07T11:10:39.927Z,41.00
2019-04-07T11:13:15.699Z,43.25
2019-04-07T11:15:49.823Z,47.80
2019-04-07T11:18:23.724Z,43.00
2019-04-07T11:20:57.455Z,43.50
2019-04-07T11:23:31.986Z,45.75
2019-04-07T11:26:07.829Z,52.50
2019-04-07T11:28:42.242Z,53.50
2019-04-07T11:31:16.775Z,53.00
2019-04-07T11:33:50.695Z,46.00
2019-04-07T11:36:24.533Z,45.00
2019-04-07T11:38:59.135Z,43.60
2019-04-07T11:41:32.862Z,43.25
2019-04-07T11:44:07.325Z,40.25
2019-04-07T11:46:41.935Z,44.60
2019-04-07T11:49:16.108Z,38.50
2019-04-07T11:51:49.872Z,39.50
2019-04-07T11:54:24.079Z,37.75
2019-04-07T11:56:58.879Z,37.50
2019-04-07T11:59:32.976Z,35.75
2019-04-07T12:02:08.667Z,34.25
2019-04-07T12:04:42.227Z,32.20
2019-04-07T12:07:19.128Z,32.00
2019-04-07T12:09:52.203Z,34.00
2019-04-07T12:12:26.576Z,30.50
2019-04-07T12:15:00.397Z,32.60
2019-04-07T12:17:34.764Z,33.00
2019-04-07T12:20:09.636Z,33.25
2019-04-07T12:22:44.756Z,35.00
2019-04-07T12:25:19.018Z,32.50
2019-04-07T12:27:53.775Z,18.50
2019-04-07T12:30:28.401Z,34.75
2019-04-07T12:33:05.002Z,33.25
2019-04-07T12:35:37.692Z,32.00
2019-04-07T12:38:12.538Z,32.00
2019-04-07T12:40:47.046Z,36.50
2019-04-07T12:43:20.836Z,36.75
2019-04-07T12:45:54.840Z,33.75
2019-04-07T12:48:30.626Z,29.25
2019-04-07T12:51:04.093Z,32.75
2019-04-07T12:53:37.804Z,29.50
2019-04-07T12:56:11.555Z,32.00
2019-04-07T12:58:47.212Z,35.50
2019-04-07T13:01:21.175Z,32.00
2019-04-07T13:03:55.840Z,26.25
2019-04-07T13:06:29.733Z,27.80
2019-04-07T13:09:04.702Z,31.25
2019-04-07T13:11:42.745Z,29.75
2019-04-07T13:14:14.063Z,30.60
2019-04-07T13:16:48.015Z,26.60
2019-04-07T13:19:21.730Z,30.75
2019-04-07T13:21:57.887Z,31.75
2019-04-07T13:24:35.213Z,32.00
2019-04-07T13:27:06.408Z,33.50
2019-04-07T13:29:41.255Z,31.00
2019-04-07T13:32:15.143Z,29.75
2019-04-07T13:34:49.867Z,28.20
2019-04-07T13:37:23.666Z,34.50
2019-04-07T13:39:57.756Z,29.00
2019-04-07T13:42:32.458Z,30.00
2019-04-07T13:45:11.257Z,27.75
2019-04-07T13:47:44.777Z,29.25
2019-04-07T13:50:19.182Z,29.50
2019-04-07T13:52:56.113Z,27.00
2019-04-07T13:55:28.581Z,28.50
2019-04-07T13:58:02.602Z,30.25
2019-04-07T14:00:37.088Z,27.75
2019-04-07T14:03:11.278Z,27.40
2019-04-07T14:05:46.301Z,26.00
2019-04-07T14:08:22.319Z,31.50
2019-04-07T14:10:57.865Z,26.25
2019-04-07T14:13:31.194Z,23.60
2019-04-07T14:16:04.882Z,25.00
2019-04-07T14:18:38.611Z,26.25
2019-04-07T14:21:12.371Z,28.75
2019-04-07T14:23:46.884Z,25.60
2019-04-07T14:26:20.880Z,27.25
2019-04-07T14:28:54.704Z,27.00
2019-04-07T14:31:29.217Z,24.75
2019-04-07T14:34:03.515Z,26.20
2019-04-07T14:36:37.591Z,26.00
2019-04-07T14:39:12.854Z,24.20
2019-04-07T14:41:47.324Z,28.50
2019-04-07T14:44:21.437Z,26.25
2019-04-07T14:46:55.622Z,25.80
2019-04-07T14:49:29.800Z,28.25
2019-04-07T14:52:04.319Z,29.20
2019-04-07T14:54:38.215Z,26.60
2019-04-07T14:57:12.807Z,25.60
2019-04-07T14:59:47.339Z,29.25
2019-04-07T15:02:21.529Z,24.20
2019-04-07T15:04:56.909Z,27.40
2019-04-07T15:07:30.818Z,28.25
2019-04-07T15:10:06.225Z,25.00
2019-04-07T15:12:40.322Z,25.25
2019-04-07T15:15:14.213Z,27.00
2019-04-07T15:17:48.750Z,27.75
2019-04-07T15:20:22.630Z,20.50
2019-04-07T15:22:58.346Z,22.60
2019-04-07T15:25:31.812Z,26.25
2019-04-07T15:28:05.529Z,23.75
2019-04-07T15:30:39.569Z,25.20
2019-04-07T15:33:13.686Z,27.00
2019-04-07T15:35:50.197Z,26.00
2019-04-07T15:38:26.850Z,23.25
2019-04-07T15:40:59.811Z,24.80
2019-04-07T15:43:35.071Z,23.25
2019-04-07T15:46:09.508Z,26.50
2019-04-07T15:48:43.428Z,24.25
2019-04-07T15:51:17.562Z,25.20
2019-04-07T15:53:52.091Z,22.60
2019-04-07T15:56:26.047Z,23.25
2019-04-07T15:59:01.314Z,23.75
2019-04-07T16:01:36.094Z,30.20
2019-04-07T16:04:10.688Z,25.75
2019-04-07T16:06:48.162Z,25.80
2019-04-07T16:09:31.437Z,25.00
2019-04-07T16:11:57.416Z,25.80
2019-04-07T16:14:30.978Z,27.25
2019-04-07T16:17:07.255Z,23.25
2019-04-07T16:19:43.771Z,23.00
2019-04-07T16:22:15.601Z,24.50
2019-04-07T16:24:51.591Z,25.80
2019-04-07T16:27:24.793Z,26.50
2019-04-07T16:29:58.499Z,25.80
2019-04-07T16:32:32.746Z,37.00
2019-04-07T16:35:10.424Z,33.00
2019-04-07T16:37:43.744Z,30.50
2019-04-07T16:40:18.421Z,29.50
2019-04-07T16:43:04.604Z,29.75
2019-04-07T16:45:28.269Z,28.00
2019-04-07T16:48:04.533Z,27.00
2019-04-07T16:50:38.138Z,25.80
2019-04-07T16:53:12.654Z,26.80
2019-04-07T16:55:48.982Z,27.20
2019-04-07T16:58:22.433Z,32.00
2019-04-07T17:00:56.289Z,26.75
2019-04-07T17:03:30.975Z,28.00
2019-04-07T17:06:05.310Z,26.60
2019-04-07T17:08:39.161Z,29.25
2019-04-07T17:11:13.931Z,29.50
2019-04-07T17:13:47.778Z,25.20
2019-04-07T17:16:23.917Z,32.50
2019-04-07T17:18:57.383Z,27.50
2019-04-07T17:21:31.943Z,27.25
2019-04-07T17:24:05.762Z,25.80
2019-04-07T17:26:39.477Z,31.00
2019-04-07T17:29:17.091Z,27.75
2019-04-07T17:31:48.784Z,29.00
2019-04-07T17:34:22.928Z,25.00
2019-04-07T17:36:57.582Z,25.80
2019-04-07T17:39:31.556Z,26.00
2019-04-07T17:42:05.930Z,26.50
2019-04-07T17:44:40.252Z,26.40
2019-04-07T17:47:14.015Z,30.00
2019-04-07T17:49:48.349Z,26.00
2019-04-07T17:52:36.238Z,27.25
2019-04-07T17:55:10.652Z,27.25
2019-04-07T17:57:45.049Z,30.50
2019-04-07T18:00:18.906Z,27.50
2019-04-07T18:02:56.871Z,31.00
2019-04-07T18:05:28.067Z,29.00
2019-04-07T18:08:01.885Z,23.80
2019-04-07T18:10:35.915Z,27.40
2019-04-07T18:13:09.641Z,30.00
2019-04-07T18:15:43.441Z,26.75
2019-04-07T18:18:23.276Z,30.50
2019-04-07T18:20:52.911Z,25.50
2019-04-07T18:23:26.745Z,28.00
2019-04-07T18:26:04.223Z,31.00
2019-04-07T18:28:35.984Z,31.40
2019-04-07T18:31:10.008Z,36.25
2019-04-07T18:33:43.843Z,32.20
2019-04-07T18:36:18.017Z,27.25
2019-04-07T18:38:51.906Z,39.20
2019-04-07T18:41:25.623Z,32.75
2019-04-07T18:44:04.688Z,31.25
2019-04-07T18:46:34.869Z,35.00
2019-04-07T18:49:08.578Z,38.75
2019-04-07T18:51:47.145Z,33.75
2019-04-07T18:54:17.731Z,35.25
2019-04-07T18:56:51.516Z,40.50
2019-04-07T18:59:25.850Z,43.25
2019-04-07T19:01:59.990Z,34.25
2019-04-07T19:04:33.733Z,38.25
2019-04-07T19:07:07.766Z,39.50
2019-04-07T19:09:42.362Z,44.75
2019-04-07T19:12:19.261Z,37.80
2019-04-07T19:15:01.151Z,37.00
2019-04-07T19:17:28.110Z,36.00
2019-04-07T19:20:05.354Z,41.25
2019-04-07T19:22:37.543Z,40.75
2019-04-07T19:25:12.999Z,35.00
2019-04-07T19:27:46.699Z,38.75
2019-04-07T19:30:20.597Z,37.50
2019-04-07T19:32:56.408Z,41.40
2019-04-07T19:35:32.269Z,38.75
2019-04-07T19:38:05.156Z,42.75
2019-04-07T19:40:39.000Z,41.75
2019-04-07T19:43:13.512Z,41.00
2019-04-07T19:45:47.511Z,41.00
2019-04-07T19:48:22.116Z,34.25
2019-04-07T19:50:57.683Z,39.75
2019-04-07T19:53:32.648Z,41.50
2019-04-07T19:56:06.724Z,37.75
2019-04-07T19:58:41.104Z,39.20
2019-04-07T20:01:14.972Z,38.50
2019-04-07T20:03:49.548Z,40.75
2019-04-07T20:06:24.860Z,37.80
2019-04-07T20:08:58.857Z,39.25
2019-04-07T20:11:35.839Z,35.75
2019-04-07T20:14:11.819Z,38.00
2019-04-07T20:16:46.173Z,40.60
2019-04-07T20:19:19.396Z,37.60
2019-04-07T20:21:55.121Z,40.50
2019-04-07T20:24:29.497Z,39.25
2019-04-07T20:27:03.349Z,39.00
2019-04-07T20:29:41.348Z,43.25
2019-04-07T20:32:13.106Z,37.20
2019-04-07T20:34:47.189Z,43.50
2019-04-07T20:37:23.801Z,40.75
2019-04-07T20:39:58.042Z,39.20
2019-04-07T20:42:31.786Z,37.75
2019-04-07T20:45:13.202Z,39.20
2019-04-07T20:47:40.996Z,41.50
2019-04-07T20:50:15.515Z,41.50
2019-04-07T20:52:50.393Z,39.50
2019-04-07T20:55:24.228Z,42.25
2019-04-07T20:58:14.467Z,46.25
2019-04-07T21:00:37.169Z,39.00
2019-04-07T21:03:18.235Z,45.50
2019-04-07T21:05:44.375Z,40.75
2019-04-07T21:08:18.090Z,42.00
2019-04-07T21:10:51.897Z,43.25
2019-04-07T21:13:25.596Z,41.25
2019-04-07T21:15:59.494Z,46.00
2019-04-07T21:18:34.018Z,39.50
2019-04-07T21:21:10.335Z,43.00
2019-04-07T21:23:43.337Z,45.00
2019-04-07T21:26:17.561Z,43.50
2019-04-07T21:28:51.273Z,44.25
2019-04-07T21:31:26.056Z,41.75
2019-04-07T21:33:59.974Z,45.75
2019-04-07T21:36:37.637Z,43.40
2019-04-07T21:39:09.882Z,43.00
2019-04-07T21:41:45.137Z,35.60
2019-04-07T21:44:19.999Z,46.75
2019-04-07T21:46:54.783Z,41.75
2019-04-07T21:49:32.751Z,46.50
2019-04-07T21:52:04.640Z,42.40
2019-04-07T21:54:39.122Z,38.00
2019-04-07T21:57:14.009Z,44.75
2019-04-07T21:59:48.642Z,45.80
2019-04-07T22:02:23.612Z,37.50
2019-04-07T22:04:57.457Z,46.75
2019-04-07T22:07:33.235Z,48.25
2019-04-07T22:10:07.453Z,47.25
2019-04-07T22:12:42.248Z,48.25
2019-04-07T22:15:16.074Z,45.80
2019-04-07T22:17:49.795Z,43.25
2019-04-07T22:20:23.511Z,47.75
2019-04-07T22:23:00.983Z,52.00
2019-04-07T22:25:36.184Z,45.75
2019-04-07T22:28:09.706Z,44.50
2019-04-07T22:30:44.703Z,40.00
2019-04-07T22:33:22.995Z,43.50
2019-04-07T22:35:54.033Z,42.80
2019-04-07T22:38:27.760Z,42.25
2019-04-07T22:41:01.467Z,43.00
2019-04-07T22:43:35.177Z,45.25
2019-04-07T22:46:17.484Z,45.25
2019-04-07T22:48:44.321Z,42.75
2019-04-07T22:51:18.852Z,44.00
2019-04-07T22:53:56.174Z,41.25
2019-04-07T22:56:28.147Z,44.20
2019-04-07T22:59:01.874Z,45.25
2019-04-07T23:01:35.574Z,44.75
2019-04-07T23:04:09.296Z,47.75
2019-04-07T23:06:43.043Z,43.00
2019-04-07T23:09:17.617Z,47.20
2019-04-07T23:11:52.380Z,49.50
2019-04-07T23:14:26.151Z,47.40
2019-04-07T23:17:00.491Z,51.25
2019-04-07T23:19:34.442Z,44.75
2019-04-07T23:22:08.198Z,47.40
2019-04-07T23:24:41.920Z,50.00
2019-04-07T23:27:15.597Z,53.50
2019-04-07T23:29:49.334Z,39.40
2019-04-07T23:32:23.997Z,48.75
2019-04-07T23:34:57.897Z,41.00
2019-04-07T23:37:31.610Z,43.00
2019-04-07T23:40:06.982Z,49.20
2019-04-07T23:42:40.712Z,44.75
2019-04-07T23:45:14.465Z,48.00
2019-04-07T23:47:48.250Z,48.20
2019-04-07T23:50:21.947Z,43.50
2019-04-07T23:52:56.024Z,49.50
2019-04-07T23:55:29.750Z,46.75
2019-04-07T23:58:03.467Z,45.75
